Thursday, September 18, 2014
11:46 UTC
  |  Log In   |  Register Free
Airport Search:

Modesto City-Co-Harry Sham Fld Airport
(KMOD)

FAA data valid effective July 24, 2014 until September 18, 2014 (unless otherwise noted).

 
 
 
 
 
 
 
 
 
 
 
 
 
 

Current Aviation Weather for Modesto City-Co-Harry Sham Fld Airport (KMOD)

The most recent METAR observation for KMOD was updated at: 1111
METAR Summary (Translated METAR)
KMOD
181053Z AUTO 01004KT 10SM CLR 20/13 A2978 RMK AO2 SLP082 T02000133 $
KSCK
181055Z AUTO 34003KT 10SM CLR 18/15 A2979 RMK AO2 SLP087 T01830150 TSNO
(21 nm NW from KMOD)
KMER
181055Z AUTO 31007KT 10SM CLR 19/12 A2979 RMK AO1
(23.5 nm SE from KMOD)
TAF Summary (Translated TAF)
KSCK
(21 nm NW from KMOD)
180526Z 1806/1906 34005KT P6SM SKC FM181000 VRB05KT P6SM BKN050 FM181900 26007KT P6SM SCT050 SCT200 FM182300 30008KT P6SM SCT250
KMER
(23.5 nm SE from KMOD)
180537Z 1806/1906 35007KT P6SM SCT200
  Airport Weather Conditions for KMOD

 Current Weather at MOD
70° F
Fair
Northwest winds at 8.1 mph
MOD NOAA Radar

Pressure: 29.78 in
Humidity: 59%
Wind: Northwest at 8.1 MPH (7 KT)
Dew Point: 55.0°F
Visibility: 10.00 mi


Airport Weather Forecast for KMOD

Translated METAR and TAF for KMOD
Translated METAR for KMOD (1140 UTC 18 September 2014)
found at http://aviationweather.gov/adds/metars/
 
METAR text: KMOD 181053Z AUTO 01004KT 10SM CLR 20/13 A2978 RMK AO2 SLP082 T02000133 $
Conditions at: KMOD (MODESTO , CA, US) observed 1053 UTC 18 September 2014
Temperature: 20.0°C (68°F)
Dewpoint: 13.3°C (56°F) [RH = 65%]
Pressure (altimeter): 29.78 inches Hg (1008.5 mb)
[Sea-level pressure: 1008.2 mb]
Winds: from the N (10 degrees) at 5 MPH (4 knots; 2.1 m/s)
Visibility: 10 or more miles (16+ km)
Ceiling: at least 12,000 feet AGL
Clouds: sky clear below 12,000 feet AGL
Weather:
SOME DATA ABOVE MAY BE INACCURATE!!!
"$" is an indication the sensor requires maintenance
Translated TAF for KMOD

There is no translated TAF available for this airport

Find All Airport Services Find A Hotel Find A Rental Car Find A Golf Course Find A Restaurant $100 Hamburger



FBO's on the Field
FBO Company Facility Photos Services Transportation Aviation Fuel Prices: Prices include tax
Catering Weather Repair Courtesy Rental Type 100LL JetA JetA+ MOGAS 8087
 
Sky Trek Aviation

This FBO has not yet been rated
FS:Avfuel
Last Updated: Aug-27
Login to update fuel prices
SS:
Contact Sky Trek AviationMore FBO Information
 
Add another FBO Facility Photos Catering Weather Repair Courtesy Rental Type 100LL JetA JetA+ MOGAS 8087
Services Transportation Aviation Fuel Prices: Prices include tax


model-print
model-print
model-print
model-print